Time;durP1;ratioP1;P1;durP2;ratioP2;P2;SDS_P1;SDS_P2;PMS_P1;PMS_P2;Temp;Humidity;BMP_temperature;BMP_pressure;BME280_temperature;BME280_humidity;BME280_pressure;Samples;Min_cycle;Max_cycle;Signal;HPM_P1;HPM_P2
2022/12/02 00:01:41;;;;;;;;;;;9.20;68.50;;;;;;4933540;29;19927;-49
2022/12/02 00:04:16;;;;;;;;;;;9.20;68.30;;;;;;4934006;29;20002;-49
2022/12/02 00:06:43;;;;;;;;;;;9.10;68.10;;;;;;4918785;29;20288;-48
2022/12/02 00:09:27;;;;;;;;;;;9.20;68.20;;;;;;4936030;29;19937;-49
2022/12/02 00:11:57;;;;;;;;;;;9.20;68.20;;;;;;4933471;29;20379;-48
2022/12/02 00:14:28;;;;;;;;;;;9.20;68.30;;;;;;4933552;29;19953;-48
2022/12/02 00:16:55;;;;;;;;;;;9.20;68.80;;;;;;4936821;29;19927;-50
2022/12/02 00:19:24;;;;;;;;;;;9.20;68.20;;;;;;4933354;29;20462;-52
2022/12/02 00:21:53;;;;;;;;;;;9.20;68.10;;;;;;4933470;29;20303;-48
2022/12/02 00:24:22;;;;;;;;;;;9.20;68.20;;;;;;4935412;29;19927;-51
2022/12/02 00:26:48;;;;;;;;;;;9.20;68.20;;;;;;4938056;29;20409;-49
2022/12/02 00:29:15;;;;;;;;;;;9.20;68.10;;;;;;4933203;29;19949;-49
2022/12/02 00:31:41;;;;;;;;;;;9.20;68.10;;;;;;4933177;29;19937;-50
2022/12/02 00:34:10;;;;;;;;;;;9.30;68.20;;;;;;4934294;29;20347;-49
2022/12/02 00:36:37;;;;;;;;;;;9.30;68.10;;;;;;4936786;29;19970;-49
2022/12/02 00:39:03;;;;;;;;;;;9.20;68.20;;;;;;4932001;29;19930;-50
2022/12/02 00:41:30;;;;;;;;;;;9.30;68.30;;;;;;4933365;29;19936;-49
2022/12/02 00:46:42;;;;;;;;;;;9.30;68.40;;;;;;4920988;29;19927;-49
2022/12/02 00:49:10;;;;;;;;;;;9.30;68.30;;;;;;4933347;29;19927;-48
2022/12/02 00:51:37;;;;;;;;;;;9.20;68.30;;;;;;4932562;29;20283;-49
2022/12/02 00:54:08;;;;;;;;;;;9.20;68.20;;;;;;4936277;29;19931;-51
2022/12/02 00:56:43;;;;;;;;;;;9.20;68.10;;;;;;4939903;29;20017;-48
2022/12/02 00:59:09;;;;;;;;;;;9.20;68.20;;;;;;4936803;29;20030;-49
2022/12/02 01:01:43;;;;;;;;;;;9.20;68.30;;;;;;4935550;29;19926;-48
2022/12/02 01:04:10;;;;;;;;;;;9.10;68.10;;;;;;4938216;29;19934;-51
2022/12/02 01:06:38;;;;;;;;;;;9.10;68.10;;;;;;4936608;29;19927;-48
2022/12/02 01:09:04;;;;;;;;;;;9.10;68.00;;;;;;4936108;29;19937;-52
2022/12/02 01:11:33;;;;;;;;;;;9.10;67.90;;;;;;4935359;29;19933;-49
2022/12/02 01:13:59;;;;;;;;;;;9.00;67.90;;;;;;4921352;29;20355;-51
2022/12/02 01:16:26;;;;;;;;;;;9.00;68.10;;;;;;4936123;29;19927;-49
2022/12/02 01:18:54;;;;;;;;;;;9.00;68.30;;;;;;4935606;29;20417;-52
2022/12/02 01:21:22;;;;;;;;;;;9.00;68.20;;;;;;4935010;29;19954;-49
2022/12/02 01:23:48;;;;;;;;;;;9.00;68.10;;;;;;4938037;29;19927;-51
2022/12/02 01:26:17;;;;;;;;;;;9.00;68.10;;;;;;4936516;29;19926;-49
2022/12/02 01:28:45;;;;;;;;;;;9.00;68.20;;;;;;4935978;29;19927;-50
2022/12/02 01:31:14;;;;;;;;;;;9.00;68.10;;;;;;4939976;29;19927;-49
2022/12/02 01:33:40;;;;;;;;;;;9.00;68.10;;;;;;4936088;29;19934;-52
2022/12/02 01:36:07;;;;;;;;;;;8.90;68.10;;;;;;4928444;29;20025;-48
2022/12/02 01:38:36;;;;;;;;;;;8.90;68.10;;;;;;4938486;29;19937;-49
2022/12/02 01:41:06;;;;;;;;;;;8.90;68.10;;;;;;4934875;29;19930;-48
2022/12/02 01:43:32;;;;;;;;;;;8.90;68.00;;;;;;4930887;29;19966;-52
2022/12/02 01:45:59;;;;;;;;;;;8.80;68.00;;;;;;4935432;29;19927;-51
2022/12/02 01:48:27;;;;;;;;;;;8.80;68.10;;;;;;4934746;29;19926;-52
2022/12/02 01:50:53;;;;;;;;;;;8.80;68.10;;;;;;4940322;29;19933;-50
2022/12/02 01:53:20;;;;;;;;;;;8.80;68.20;;;;;;4936202;29;19926;-49
2022/12/02 01:55:47;;;;;;;;;;;8.80;68.10;;;;;;4918609;29;19931;-48
2022/12/02 01:58:14;;;;;;;;;;;8.80;68.10;;;;;;4919392;29;20410;-49
2022/12/02 02:00:40;;;;;;;;;;;8.70;67.90;;;;;;4943600;29;20009;-48
2022/12/02 02:03:07;;;;;;;;;;;8.80;68.20;;;;;;4920009;29;19927;-49
2022/12/02 02:05:34;;;;;;;;;;;8.70;68.10;;;;;;4935633;29;19994;-49
2022/12/02 02:08:03;;;;;;;;;;;8.70;68.10;;;;;;4919977;29;19954;-48
2022/12/02 02:10:32;;;;;;;;;;;8.70;68.10;;;;;;4934043;29;19950;-50
2022/12/02 02:12:59;;;;;;;;;;;8.80;68.30;;;;;;4935078;29;20360;-48
2022/12/02 02:15:27;;;;;;;;;;;8.80;68.10;;;;;;4934396;29;19930;-51
2022/12/02 02:17:54;;;;;;;;;;;8.70;68.10;;;;;;4937163;29;19927;-51
2022/12/02 02:20:26;;;;;;;;;;;8.70;68.00;;;;;;4936428;29;19974;-51
2022/12/02 02:23:04;;;;;;;;;;;8.80;67.90;;;;;;4928462;29;20452;-49
2022/12/02 02:25:43;;;;;;;;;;;8.70;67.80;;;;;;4918466;29;20033;-51
2022/12/02 02:28:10;;;;;;;;;;;8.70;67.80;;;;;;4937436;29;19927;-51
2022/12/02 02:30:37;;;;;;;;;;;8.70;67.90;;;;;;4917944;29;19926;-52
2022/12/02 02:33:06;;;;;;;;;;;8.70;68.10;;;;;;4935180;29;19934;-49
2022/12/02 02:35:36;;;;;;;;;;;8.70;68.10;;;;;;4933238;29;20396;-49
2022/12/02 02:38:04;;;;;;;;;;;8.70;68.00;;;;;;4925655;29;20280;-49
2022/12/02 02:40:31;;;;;;;;;;;8.70;68.00;;;;;;4917573;29;20418;-49
2022/12/02 02:43:02;;;;;;;;;;;8.70;67.90;;;;;;4933915;29;20302;-49
2022/12/02 02:45:32;;;;;;;;;;;8.70;67.80;;;;;;4933880;29;19927;-50
2022/12/02 02:48:03;;;;;;;;;;;8.80;68.00;;;;;;4919194;29;19931;-51
2022/12/02 02:50:32;;;;;;;;;;;8.70;67.90;;;;;;4917686;29;19927;-48
2022/12/02 02:53:00;;;;;;;;;;;8.70;67.80;;;;;;4934660;29;20037;-49
2022/12/02 02:55:30;;;;;;;;;;;8.70;68.40;;;;;;4935514;29;19927;-49
2022/12/02 02:58:14;;;;;;;;;;;8.70;68.00;;;;;;4945063;29;20010;-49
2022/12/02 03:01:07;;;;;;;;;;;8.70;68.00;;;;;;4940757;29;19933;-50
2022/12/02 03:03:36;;;;;;;;;;;8.70;68.00;;;;;;4933555;29;20029;-50
2022/12/02 03:06:04;;;;;;;;;;;8.70;67.90;;;;;;4933745;29;20029;-52
2022/12/02 03:08:31;;;;;;;;;;;8.70;67.90;;;;;;4938075;29;19981;-50
2022/12/02 03:10:59;;;;;;;;;;;8.70;67.90;;;;;;4924554;29;19927;-49
2022/12/02 03:13:26;;;;;;;;;;;8.70;68.00;;;;;;4936135;29;19927;-48
2022/12/02 03:15:52;;;;;;;;;;;8.70;68.00;;;;;;4937860;29;19933;-51
2022/12/02 03:18:21;;;;;;;;;;;8.70;68.00;;;;;;4932867;29;19990;-49
2022/12/02 03:20:48;;;;;;;;;;;8.70;68.00;;;;;;4934300;29;19934;-50
2022/12/02 03:23:14;;;;;;;;;;;8.60;67.80;;;;;;4926510;29;19926;-49
2022/12/02 03:25:41;;;;;;;;;;;8.60;67.80;;;;;;4936362;29;20029;-50
2022/12/02 03:28:15;;;;;;;;;;;8.60;67.70;;;;;;4934137;29;19927;-48
2022/12/02 03:30:41;;;;;;;;;;;8.60;67.80;;;;;;4934196;29;19927;-49
2022/12/02 03:33:08;;;;;;;;;;;8.60;67.80;;;;;;4935349;29;20435;-51
2022/12/02 03:35:35;;;;;;;;;;;8.60;67.90;;;;;;4935141;29;20402;-49
2022/12/02 03:38:01;;;;;;;;;;;8.60;67.80;;;;;;4933756;29;20406;-50
2022/12/02 03:40:28;;;;;;;;;;;8.50;67.80;;;;;;4933989;29;19933;-49
2022/12/02 03:42:55;;;;;;;;;;;8.60;68.00;;;;;;4934602;29;19941;-49
2022/12/02 03:45:26;;;;;;;;;;;8.50;67.80;;;;;;4938164;29;19974;-48
2022/12/02 03:47:55;;;;;;;;;;;8.50;67.80;;;;;;4933736;29;19934;-48
2022/12/02 03:50:22;;;;;;;;;;;8.50;67.80;;;;;;4933659;29;20328;-52
2022/12/02 03:52:48;;;;;;;;;;;8.50;67.90;;;;;;4937105;29;20358;-52
2022/12/02 03:55:17;;;;;;;;;;;8.50;67.80;;;;;;4933590;29;19934;-48
2022/12/02 03:57:44;;;;;;;;;;;8.50;67.90;;;;;;4933755;29;20546;-51
2022/12/02 04:00:11;;;;;;;;;;;8.50;68.00;;;;;;4933837;29;20426;-51
2022/12/02 04:02:42;;;;;;;;;;;8.50;68.00;;;;;;4933776;29;20146;-49
2022/12/02 04:05:09;;;;;;;;;;;8.50;68.00;;;;;;4933761;29;19982;-51
2022/12/02 04:07:36;;;;;;;;;;;8.50;67.80;;;;;;4933529;29;19930;-51
2022/12/02 04:10:04;;;;;;;;;;;8.50;67.90;;;;;;4918556;29;19933;-49
2022/12/02 04:12:30;;;;;;;;;;;8.50;67.80;;;;;;4943671;29;19930;-49
2022/12/02 04:14:57;;;;;;;;;;;8.50;68.00;;;;;;4934958;29;19930;-49
2022/12/02 04:17:25;;;;;;;;;;;8.50;67.90;;;;;;4932293;29;19927;-50
2022/12/02 04:19:52;;;;;;;;;;;8.40;67.80;;;;;;4933496;29;19933;-52
2022/12/02 04:22:19;;;;;;;;;;;8.50;67.90;;;;;;4935148;29;20291;-48
2022/12/02 04:24:45;;;;;;;;;;;8.50;67.90;;;;;;4933508;29;19927;-50
2022/12/02 04:27:15;;;;;;;;;;;8.50;68.00;;;;;;4936446;29;20458;-48
2022/12/02 04:29:44;;;;;;;;;;;8.50;68.10;;;;;;4937969;29;19937;-50
2022/12/02 04:32:10;;;;;;;;;;;8.50;68.20;;;;;;4940866;29;20314;-53
2022/12/02 04:34:37;;;;;;;;;;;8.50;68.00;;;;;;4937496;29;19930;-48
2022/12/02 04:37:03;;;;;;;;;;;8.50;67.80;;;;;;4937299;29;20021;-48
2022/12/02 04:39:30;;;;;;;;;;;8.50;67.90;;;;;;4941759;29;20370;-48
2022/12/02 04:41:56;;;;;;;;;;;8.50;67.80;;;;;;4936477;29;20407;-48
2022/12/02 04:44:23;;;;;;;;;;;8.40;67.80;;;;;;4937233;29;20419;-51
2022/12/02 04:46:50;;;;;;;;;;;8.50;68.00;;;;;;4937060;29;20391;-49
2022/12/02 04:49:18;;;;;;;;;;;8.50;67.90;;;;;;4938045;29;19934;-49
2022/12/02 04:51:45;;;;;;;;;;;8.50;67.80;;;;;;4936694;29;19933;-52
2022/12/02 04:54:11;;;;;;;;;;;8.50;67.80;;;;;;4936771;29;19933;-50
2022/12/02 04:56:38;;;;;;;;;;;8.50;67.80;;;;;;4938380;29;20676;-49
2022/12/02 04:59:04;;;;;;;;;;;8.50;68.10;;;;;;5007801;23;19926;-55
2022/12/02 05:01:31;;;;;;;;;;;8.50;67.90;;;;;;5013722;28;19925;-55
2022/12/02 05:03:58;;;;;;;;;;;8.50;68.00;;;;;;5013308;28;19936;-54
2022/12/02 05:06:27;;;;;;;;;;;8.50;68.60;;;;;;5014237;28;19926;-55
2022/12/02 05:08:53;;;;;;;;;;;8.40;67.90;;;;;;5026097;28;19956;-53
2022/12/02 05:11:20;;;;;;;;;;;8.50;67.90;;;;;;5028642;28;19929;-55
2022/12/02 05:13:47;;;;;;;;;;;8.40;67.80;;;;;;5031384;28;19932;-55
2022/12/02 05:16:13;;;;;;;;;;;8.40;67.90;;;;;;5028049;28;19932;-55
2022/12/02 05:18:40;;;;;;;;;;;8.40;67.80;;;;;;5013650;28;19925;-54
2022/12/02 05:21:09;;;;;;;;;;;8.40;67.80;;;;;;5013447;28;20013;-50
2022/12/02 05:23:37;;;;;;;;;;;8.40;67.80;;;;;;5027977;28;19925;-55
2022/12/02 05:26:04;;;;;;;;;;;8.30;67.80;;;;;;5032681;28;19939;-54
2022/12/02 05:28:31;;;;;;;;;;;8.30;67.80;;;;;;5033366;28;20401;-55
2022/12/02 05:30:59;;;;;;;;;;;8.30;67.80;;;;;;5024242;28;19936;-51
2022/12/02 05:33:26;;;;;;;;;;;8.30;67.70;;;;;;5018114;28;19925;-55
2022/12/02 05:35:52;;;;;;;;;;;8.30;67.80;;;;;;5032672;28;19925;-55
2022/12/02 05:38:19;;;;;;;;;;;8.30;67.90;;;;;;5020997;28;20173;-52
2022/12/02 05:40:46;;;;;;;;;;;8.20;68.00;;;;;;5012231;28;19925;-53
2022/12/02 05:43:17;;;;;;;;;;;8.30;68.00;;;;;;5025230;28;19925;-55
2022/12/02 05:45:44;;;;;;;;;;;8.30;68.10;;;;;;5028194;28;19929;-55
2022/12/02 05:48:11;;;;;;;;;;;8.30;68.00;;;;;;5023770;28;20274;-54
2022/12/02 05:50:39;;;;;;;;;;;8.30;68.10;;;;;;5006587;28;20016;-53
2022/12/02 05:53:08;;;;;;;;;;;8.20;67.90;;;;;;5021113;28;20012;-55
2022/12/02 05:55:35;;;;;;;;;;;8.20;67.90;;;;;;5024570;28;20012;-53
2022/12/02 05:58:05;;;;;;;;;;;8.20;68.00;;;;;;5029125;28;20012;-53
2022/12/02 06:00:31;;;;;;;;;;;8.20;67.90;;;;;;4995476;28;19925;-55
2022/12/02 06:03:04;;;;;;;;;;;8.20;67.90;;;;;;5024841;28;20355;-54
2022/12/02 06:05:52;;;;;;;;;;;8.30;68.00;;;;;;5032369;28;20284;-55
2022/12/02 06:08:19;;;;;;;;;;;8.30;68.10;;;;;;5022687;28;19972;-52
2022/12/02 06:10:50;;;;;;;;;;;8.30;68.00;;;;;;5025143;28;19929;-54
2022/12/02 06:13:20;;;;;;;;;;;8.30;68.10;;;;;;5028037;28;20420;-53
2022/12/02 06:15:48;;;;;;;;;;;8.20;67.90;;;;;;5019174;28;20060;-55
2022/12/02 06:18:17;;;;;;;;;;;8.20;67.80;;;;;;5009915;28;19976;-55
2022/12/02 06:20:44;;;;;;;;;;;8.20;67.90;;;;;;5025193;28;19925;-50
2022/12/02 06:23:12;;;;;;;;;;;8.20;68.00;;;;;;5024393;28;19936;-54
2022/12/02 06:25:39;;;;;;;;;;;8.20;67.90;;;;;;5029930;28;20024;-55
2022/12/02 06:28:25;;;;;;;;;;;8.20;67.80;;;;;;5010796;28;20405;-55
2022/12/02 06:30:54;;;;;;;;;;;8.20;67.90;;;;;;5014369;28;19925;-55
2022/12/02 06:33:25;;;;;;;;;;;8.20;67.90;;;;;;5025274;28;19936;-55
2022/12/02 06:35:52;;;;;;;;;;;8.20;67.90;;;;;;5015203;28;19926;-52
2022/12/02 06:38:29;;;;;;;;;;;8.10;67.90;;;;;;5012780;28;19929;-55
2022/12/02 06:41:01;;;;;;;;;;;8.20;68.00;;;;;;5017696;28;19928;-55
2022/12/02 06:43:29;;;;;;;;;;;8.10;68.00;;;;;;5029660;28;19936;-55
2022/12/02 06:45:56;;;;;;;;;;;8.20;68.00;;;;;;5021797;28;19956;-52
2022/12/02 06:48:25;;;;;;;;;;;8.20;68.00;;;;;;5029601;28;19925;-51
2022/12/02 06:50:53;;;;;;;;;;;8.10;68.00;;;;;;5025581;28;20652;-55
2022/12/02 06:53:24;;;;;;;;;;;8.10;67.80;;;;;;5003933;28;19956;-55
2022/12/02 06:55:53;;;;;;;;;;;8.10;67.90;;;;;;5010350;28;19926;-54
2022/12/02 06:58:31;;;;;;;;;;;8.10;68.00;;;;;;5011599;28;20016;-54
2022/12/02 07:01:10;;;;;;;;;;;8.20;68.00;;;;;;5028723;28;19929;-53
2022/12/02 07:03:40;;;;;;;;;;;8.20;68.00;;;;;;5022495;28;19929;-55
2022/12/02 07:06:12;;;;;;;;;;;8.20;68.00;;;;;;5028785;28;19929;-55
2022/12/02 07:08:38;;;;;;;;;;;8.20;68.00;;;;;;5029655;28;19929;-54
2022/12/02 07:11:16;;;;;;;;;;;8.20;68.00;;;;;;5028576;28;19929;-55
2022/12/02 07:13:43;;;;;;;;;;;8.20;68.00;;;;;;5024680;28;19935;-55
2022/12/02 07:16:28;;;;;;;;;;;8.20;68.10;;;;;;5019189;28;20034;-55
2022/12/02 07:18:58;;;;;;;;;;;8.20;68.00;;;;;;5021012;28;19925;-55
2022/12/02 07:21:25;;;;;;;;;;;8.40;68.10;;;;;;5023138;28;19933;-55
2022/12/02 07:23:51;;;;;;;;;;;8.30;68.10;;;;;;5017949;28;19925;-55
2022/12/02 07:26:20;;;;;;;;;;;8.30;68.10;;;;;;5011541;28;19982;-54
2022/12/02 07:28:46;;;;;;;;;;;8.20;68.00;;;;;;5016901;28;19929;-55
2022/12/02 07:31:26;;;;;;;;;;;8.20;68.00;;;;;;5025158;28;19929;-55
2022/12/02 07:33:53;;;;;;;;;;;8.30;68.10;;;;;;5010542;28;19929;-55
2022/12/02 07:36:20;;;;;;;;;;;8.30;68.10;;;;;;5027038;28;19929;-54
2022/12/02 07:38:47;;;;;;;;;;;8.30;68.10;;;;;;5026297;28;19929;-55
2022/12/02 07:41:37;;;;;;;;;;;8.30;68.10;;;;;;5001406;28;20389;-54
2022/12/02 07:44:04;;;;;;;;;;;8.30;68.10;;;;;;4992910;28;19925;-53
2022/12/02 07:46:31;;;;;;;;;;;8.30;68.10;;;;;;5025490;28;20019;-55
2022/12/02 07:48:57;;;;;;;;;;;8.30;68.10;;;;;;5026732;28;20020;-55
2022/12/02 07:51:24;;;;;;;;;;;8.30;68.10;;;;;;5024033;28;20490;-55
2022/12/02 07:53:51;;;;;;;;;;;8.30;68.10;;;;;;5027580;28;19974;-53
2022/12/02 07:56:17;;;;;;;;;;;8.30;68.10;;;;;;5027761;28;19932;-55
2022/12/02 07:58:44;;;;;;;;;;;8.30;68.10;;;;;;5029218;28;19929;-55
2022/12/02 08:01:30;;;;;;;;;;;8.30;68.10;;;;;;5022005;28;20019;-55
2022/12/02 08:03:57;;;;;;;;;;;8.30;68.10;;;;;;5012203;28;19928;-53
2022/12/02 08:06:24;;;;;;;;;;;8.30;68.10;;;;;;5028125;28;19925;-55
2022/12/02 08:08:50;;;;;;;;;;;8.40;68.10;;;;;;5028154;28;20290;-52
2022/12/02 08:11:17;;;;;;;;;;;8.30;68.10;;;;;;5022963;28;19947;-54
2022/12/02 08:13:44;;;;;;;;;;;8.30;68.10;;;;;;5028670;28;20488;-52
2022/12/02 08:16:10;;;;;;;;;;;8.20;68.00;;;;;;5026646;28;19936;-55
2022/12/02 08:18:37;;;;;;;;;;;8.30;68.10;;;;;;5026117;28;20415;-52
2022/12/02 08:21:04;;;;;;;;;;;8.20;68.00;;;;;;5019589;28;19929;-55
2022/12/02 08:23:34;;;;;;;;;;;8.20;68.00;;;;;;5020872;28;20487;-51
2022/12/02 08:26:01;;;;;;;;;;;8.20;68.10;;;;;;5020024;28;19925;-55
2022/12/02 08:28:28;;;;;;;;;;;8.20;68.20;;;;;;5017245;28;20440;-53
2022/12/02 08:30:54;;;;;;;;;;;8.10;68.10;;;;;;5028311;28;19929;-55
2022/12/02 08:33:21;;;;;;;;;;;8.10;68.10;;;;;;5027449;28;20592;-52
2022/12/02 08:35:48;;;;;;;;;;;8.10;68.30;;;;;;5027745;28;19925;-55
2022/12/02 08:38:14;;;;;;;;;;;8.10;68.30;;;;;;5013661;28;20494;-53
2022/12/02 08:40:41;;;;;;;;;;;8.10;68.30;;;;;;5029653;28;19947;-54
2022/12/02 08:43:07;;;;;;;;;;;8.10;68.30;;;;;;5027566;28;19968;-54
2022/12/02 08:45:34;;;;;;;;;;;8.10;68.40;;;;;;5029217;28;19932;-55
2022/12/02 08:48:01;;;;;;;;;;;8.00;68.40;;;;;;5020715;28;19925;-55
2022/12/02 08:50:27;;;;;;;;;;;8.00;68.50;;;;;;5015099;28;19925;-54
2022/12/02 08:52:54;;;;;;;;;;;8.00;68.50;;;;;;5022168;28;19967;-53
2022/12/02 08:55:24;;;;;;;;;;;8.00;68.50;;;;;;5019423;28;19933;-55
2022/12/02 08:57:51;;;;;;;;;;;8.00;68.60;;;;;;5017495;28;19929;-53
2022/12/02 09:00:18;;;;;;;;;;;8.00;68.60;;;;;;5030418;28;20011;-55
2022/12/02 09:02:44;;;;;;;;;;;8.00;68.60;;;;;;5027131;28;19925;-55
2022/12/02 09:05:11;;;;;;;;;;;8.00;68.70;;;;;;5014420;28;19925;-55
2022/12/02 09:07:39;;;;;;;;;;;8.00;68.70;;;;;;5018637;28;19969;-55
2022/12/02 09:10:06;;;;;;;;;;;8.00;68.70;;;;;;5021442;28;19926;-53
2022/12/02 09:12:33;;;;;;;;;;;8.00;68.70;;;;;;5023674;28;19967;-55
2022/12/02 09:14:59;;;;;;;;;;;7.90;68.70;;;;;;5020949;28;19925;-55
2022/12/02 09:17:26;;;;;;;;;;;7.90;68.80;;;;;;5021134;28;20024;-54
2022/12/02 09:19:53;;;;;;;;;;;8.00;68.90;;;;;;5030970;28;19925;-55
2022/12/02 09:22:19;;;;;;;;;;;8.00;69.10;;;;;;5024700;28;19926;-55
2022/12/02 09:24:46;;;;;;;;;;;8.00;69.10;;;;;;5026917;28;19933;-55
2022/12/02 09:27:13;;;;;;;;;;;8.00;69.00;;;;;;5023616;28;19986;-55
2022/12/02 09:29:39;;;;;;;;;;;8.00;69.00;;;;;;5017416;28;19933;-54
2022/12/02 09:32:06;;;;;;;;;;;8.00;68.90;;;;;;5024766;28;19925;-53
2022/12/02 09:34:32;;;;;;;;;;;8.00;69.00;;;;;;5021971;28;20397;-55
2022/12/02 09:36:59;;;;;;;;;;;8.10;69.00;;;;;;5013915;28;19964;-54
2022/12/02 09:39:26;;;;;;;;;;;8.10;69.10;;;;;;5016611;28;20008;-52
2022/12/02 09:41:52;;;;;;;;;;;8.00;68.90;;;;;;5022438;28;19925;-55
2022/12/02 09:44:19;;;;;;;;;;;8.10;69.10;;;;;;5022282;28;19935;-53
2022/12/02 09:46:45;;;;;;;;;;;8.00;69.00;;;;;;5017656;28;19925;-53
2022/12/02 09:49:12;;;;;;;;;;;8.10;69.10;;;;;;5020275;28;19972;-55
2022/12/02 09:51:39;;;;;;;;;;;8.10;69.10;;;;;;5023898;28;20032;-52
2022/12/02 09:54:05;;;;;;;;;;;8.10;69.10;;;;;;5017082;28;20023;-55
2022/12/02 09:56:32;;;;;;;;;;;8.10;69.10;;;;;;5022266;28;19925;-55
2022/12/02 09:58:59;;;;;;;;;;;8.10;69.20;;;;;;5023934;28;20301;-55
2022/12/02 10:01:25;;;;;;;;;;;8.10;69.30;;;;;;5032574;28;19933;-54
2022/12/02 10:03:54;;;;;;;;;;;8.20;69.40;;;;;;5020889;28;21191;-53
2022/12/02 10:06:25;;;;;;;;;;;8.20;69.40;;;;;;5021140;28;20311;-54
2022/12/02 10:08:54;;;;;;;;;;;8.30;69.40;;;;;;5028353;28;19925;-53
2022/12/02 10:11:26;;;;;;;;;;;8.30;69.30;;;;;;5025952;28;20663;-53
2022/12/02 10:13:53;;;;;;;;;;;8.30;69.20;;;;;;5028309;28;19971;-54
2022/12/02 10:16:20;;;;;;;;;;;8.30;69.10;;;;;;5025895;28;19936;-54
2022/12/02 10:18:49;;;;;;;;;;;8.30;69.00;;;;;;5020002;28;19937;-55
2022/12/02 10:21:16;;;;;;;;;;;8.30;69.00;;;;;;5022821;28;19926;-51
2022/12/02 10:23:52;;;;;;;;;;;8.30;68.90;;;;;;5017940;28;19925;-55
2022/12/02 10:26:18;;;;;;;;;;;8.30;68.80;;;;;;5022896;28;19931;-54
2022/12/02 10:29:04;;;;;;;;;;;8.30;68.80;;;;;;5030152;28;19936;-52
2022/12/02 10:31:33;;;;;;;;;;;8.30;68.80;;;;;;5025764;28;19929;-55
2022/12/02 10:34:05;;;;;;;;;;;8.30;68.80;;;;;;5031478;28;20345;-54
2022/12/02 10:36:39;;;;;;;;;;;8.30;68.90;;;;;;5029722;28;19925;-52
2022/12/02 10:39:33;;;;;;;;;;;8.30;68.90;;;;;;5022458;28;20324;-53
2022/12/02 10:42:04;;;;;;;;;;;8.30;68.90;;;;;;5030125;28;19926;-55
2022/12/02 10:44:35;;;;;;;;;;;8.50;69.00;;;;;;5028882;28;20029;-50
2022/12/02 10:47:15;;;;;;;;;;;8.30;68.80;;;;;;5023985;28;19936;-55
2022/12/02 10:49:49;;;;;;;;;;;8.30;68.90;;;;;;5021648;28;19968;-55
2022/12/02 10:52:17;;;;;;;;;;;8.30;68.80;;;;;;5025831;28;19941;-55
2022/12/02 10:54:45;;;;;;;;;;;8.30;68.80;;;;;;5024122;28;19935;-54
2022/12/02 10:57:15;;;;;;;;;;;8.30;68.80;;;;;;5017070;28;20317;-54
2022/12/02 10:59:41;;;;;;;;;;;8.30;68.80;;;;;;5010079;28;19936;-54
2022/12/02 11:02:15;;;;;;;;;;;8.40;68.90;;;;;;5025479;28;19928;-54
2022/12/02 11:04:42;;;;;;;;;;;8.40;68.80;;;;;;5029475;28;20011;-54
2022/12/02 11:07:12;;;;;;;;;;;8.40;68.80;;;;;;5019195;28;19933;-55
2022/12/02 11:09:39;;;;;;;;;;;8.40;68.80;;;;;;5030267;28;20313;-55
2022/12/02 11:12:25;;;;;;;;;;;8.40;68.80;;;;;;5019358;28;19951;-53
2022/12/02 11:14:53;;;;;;;;;;;8.40;68.80;;;;;;5026760;28;19931;-53
2022/12/02 11:17:40;;;;;;;;;;;8.40;68.70;;;;;;5019549;28;19933;-55
2022/12/02 11:20:25;;;;;;;;;;;8.40;68.70;;;;;;5014179;28;19929;-52
2022/12/02 11:23:07;;;;;;;;;;;8.40;68.70;;;;;;5026829;28;19947;-52
2022/12/02 11:25:43;;;;;;;;;;;8.40;68.60;;;;;;5024045;28;19933;-55
2022/12/02 11:28:28;;;;;;;;;;;8.40;68.60;;;;;;5020921;28;19925;-52
2022/12/02 11:31:10;;;;;;;;;;;8.40;68.60;;;;;;5024928;28;19929;-53
2022/12/02 11:33:42;;;;;;;;;;;8.40;68.60;;;;;;5018996;28;19972;-53
2022/12/02 11:36:22;;;;;;;;;;;8.40;68.50;;;;;;5008931;28;19937;-53
2022/12/02 11:38:55;;;;;;;;;;;8.40;68.40;;;;;;5022411;28;19928;-53
2022/12/02 11:41:26;;;;;;;;;;;8.40;68.40;;;;;;5019963;28;19925;-55
2022/12/02 11:43:53;;;;;;;;;;;8.40;68.40;;;;;;5017231;28;19933;-53
2022/12/02 11:46:37;;;;;;;;;;;8.40;68.40;;;;;;5020029;28;19925;-54
2022/12/02 11:49:17;;;;;;;;;;;8.50;68.50;;;;;;5011417;28;19926;-54
2022/12/02 11:51:44;;;;;;;;;;;8.50;68.40;;;;;;5029726;28;19936;-55
2022/12/02 11:54:12;;;;;;;;;;;8.40;68.40;;;;;;5017944;28;19926;-52
2022/12/02 11:56:39;;;;;;;;;;;8.40;68.30;;;;;;5010874;28;19983;-52
2022/12/02 11:59:25;;;;;;;;;;;8.50;68.30;;;;;;5018089;28;20601;-52
2022/12/02 12:02:13;;;;;;;;;;;8.50;68.20;;;;;;5024554;28;19929;-53
2022/12/02 12:04:40;;;;;;;;;;;8.50;68.20;;;;;;5016446;28;20018;-52
2022/12/02 12:07:07;;;;;;;;;;;8.50;68.20;;;;;;5003226;28;19956;-55
2022/12/02 12:09:34;;;;;;;;;;;8.50;68.20;;;;;;5009537;28;20060;-54
2022/12/02 12:12:13;;;;;;;;;;;8.50;68.20;;;;;;5014674;28;19952;-52
2022/12/02 12:14:57;;;;;;;;;;;8.50;68.20;;;;;;5029547;28;19937;-55
2022/12/02 12:17:32;;;;;;;;;;;8.50;68.20;;;;;;5014876;28;19929;-52
2022/12/02 12:19:59;;;;;;;;;;;8.50;68.20;;;;;;5026313;28;19953;-54
2022/12/02 12:22:27;;;;;;;;;;;8.50;68.10;;;;;;5025555;28;20718;-55
2022/12/02 12:24:53;;;;;;;;;;;8.50;68.20;;;;;;5012875;28;19948;-54
2022/12/02 12:27:34;;;;;;;;;;;8.50;68.20;;;;;;5009012;28;20349;-54
2022/12/02 12:30:00;;;;;;;;;;;8.50;68.20;;;;;;5015088;28;19925;-55
2022/12/02 12:32:27;;;;;;;;;;;8.50;68.20;;;;;;5005377;28;19929;-55
2022/12/02 12:34:54;;;;;;;;;;;8.50;68.10;;;;;;5023803;28;19932;-54
2022/12/02 12:37:20;;;;;;;;;;;8.50;68.00;;;;;;5017370;28;19932;-54
2022/12/02 12:39:47;;;;;;;;;;;8.50;68.00;;;;;;5029363;28;20012;-55
2022/12/02 12:42:13;;;;;;;;;;;8.50;68.00;;;;;;5020270;28;19933;-54
2022/12/02 12:44:40;;;;;;;;;;;8.50;68.00;;;;;;5024806;28;19925;-52
2022/12/02 12:47:07;;;;;;;;;;;8.50;68.00;;;;;;5010063;28;19929;-54
2022/12/02 12:49:33;;;;;;;;;;;8.60;68.00;;;;;;5018499;28;19929;-55
2022/12/02 12:52:00;;;;;;;;;;;8.50;67.80;;;;;;5010805;28;19933;-55
2022/12/02 12:54:27;;;;;;;;;;;8.60;67.70;;;;;;5020012;28;19939;-54
2022/12/02 12:56:54;;;;;;;;;;;8.50;67.50;;;;;;5021180;28;19932;-55
2022/12/02 12:59:20;;;;;;;;;;;8.50;67.50;;;;;;5014163;28;19934;-55
2022/12/02 13:01:47;;;;;;;;;;;8.50;67.50;;;;;;5013242;28;20329;-55
2022/12/02 13:04:14;;;;;;;;;;;8.50;68.10;;;;;;5000896;28;19925;-53
2022/12/02 13:06:40;;;;;;;;;;;8.50;67.60;;;;;;5027996;28;19929;-55
2022/12/02 13:09:10;;;;;;;;;;;8.50;67.60;;;;;;5030193;28;20008;-55
2022/12/02 13:11:36;;;;;;;;;;;8.40;67.60;;;;;;5027444;28;19925;-54
2022/12/02 13:14:03;;;;;;;;;;;8.40;67.60;;;;;;5031438;28;19925;-54
2022/12/02 13:16:29;;;;;;;;;;;8.40;67.60;;;;;;5033612;28;20019;-54
2022/12/02 13:18:56;;;;;;;;;;;8.40;67.50;;;;;;5014697;28;20474;-55
2022/12/02 13:21:26;;;;;;;;;;;8.50;67.70;;;;;;5027245;28;20016;-55
2022/12/02 13:23:54;;;;;;;;;;;8.40;67.60;;;;;;5028488;28;19929;-55
2022/12/02 13:26:20;;;;;;;;;;;8.50;67.70;;;;;;5029283;28;20422;-52
2022/12/02 13:28:51;;;;;;;;;;;8.50;67.60;;;;;;5017656;28;19925;-54
2022/12/02 13:31:18;;;;;;;;;;;8.50;67.60;;;;;;5023247;28;19936;-54
2022/12/02 13:33:45;;;;;;;;;;;8.50;67.50;;;;;;5026699;28;19972;-54
2022/12/02 13:36:11;;;;;;;;;;;8.50;67.50;;;;;;5025791;28;19937;-54
2022/12/02 13:38:38;;;;;;;;;;;8.50;67.30;;;;;;5023269;28;20325;-53
2022/12/02 13:41:05;;;;;;;;;;;8.50;67.50;;;;;;5015674;28;20003;-55
2022/12/02 13:43:31;;;;;;;;;;;8.50;67.50;;;;;;5032260;28;20004;-56
2022/12/02 13:45:58;;;;;;;;;;;8.40;67.40;;;;;;5021647;28;19926;-53
2022/12/02 13:48:25;;;;;;;;;;;8.40;67.30;;;;;;5012574;28;19925;-51
2022/12/02 13:50:51;;;;;;;;;;;8.40;67.30;;;;;;5018017;28;19929;-55
2022/12/02 13:53:18;;;;;;;;;;;8.40;67.30;;;;;;5028476;28;19932;-55
2022/12/02 13:55:44;;;;;;;;;;;8.40;67.30;;;;;;5021975;28;19925;-55
2022/12/02 13:58:13;;;;;;;;;;;8.40;67.30;;;;;;5022860;28;19931;-55
2022/12/02 14:00:40;;;;;;;;;;;8.30;67.20;;;;;;5031849;28;20282;-55
2022/12/02 14:03:06;;;;;;;;;;;8.40;67.20;;;;;;5026697;28;19939;-55
2022/12/02 14:05:33;;;;;;;;;;;8.30;67.20;;;;;;5020897;28;19929;-55
2022/12/02 14:07:59;;;;;;;;;;;8.30;67.20;;;;;;5019348;28;19926;-55
2022/12/02 14:10:27;;;;;;;;;;;8.30;67.20;;;;;;5010993;28;19940;-54
2022/12/02 14:12:55;;;;;;;;;;;8.30;67.30;;;;;;5023468;28;19932;-53
2022/12/02 14:15:23;;;;;;;;;;;8.30;67.20;;;;;;5025433;28;19934;-54
2022/12/02 14:17:49;;;;;;;;;;;8.30;67.20;;;;;;5020410;28;20027;-55
2022/12/02 14:20:16;;;;;;;;;;;8.30;67.10;;;;;;5017514;28;19925;-55
2022/12/02 14:22:44;;;;;;;;;;;8.30;67.20;;;;;;5013190;28;21305;-55
2022/12/02 14:25:12;;;;;;;;;;;8.30;67.20;;;;;;5013169;28;19925;-55
2022/12/02 14:27:38;;;;;;;;;;;8.30;67.20;;;;;;4994792;28;19930;-55
2022/12/02 14:30:05;;;;;;;;;;;8.30;67.10;;;;;;5030659;28;19935;-55
2022/12/02 14:32:32;;;;;;;;;;;8.30;67.00;;;;;;5029575;28;20305;-54
2022/12/02 14:34:58;;;;;;;;;;;8.30;67.00;;;;;;5023757;28;19925;-55
2022/12/02 14:37:25;;;;;;;;;;;8.30;67.00;;;;;;5011439;28;20394;-55
2022/12/02 14:39:51;;;;;;;;;;;8.20;67.00;;;;;;5018421;28;20566;-55
2022/12/02 14:42:18;;;;;;;;;;;8.30;67.00;;;;;;5028339;28;19933;-54
2022/12/02 14:44:45;;;;;;;;;;;8.30;67.70;;;;;;5023709;28;19931;-53